ENNM

Namsos Høknesøra Airport

Namsos, Norway
METAR ENNM 221350Z 25017G34KT 220V300 9999 -SHRASN FEW017 SCT028 BKN044 05/02 Q1004
Observed Flight Rules
Oct-22 @ 13:50 UTC (30 minutes ago) Visual Flight Rules
Wind Visibility Clouds Conditions
250° at 17 knots
 Gusting to 34 knots
10,000+ meters
  • Few at 1,700' AGL
  • Scattered at 2,800' AGL
  • Broken at 4,400' AGL
  • Light Rain
  • Light Snow
Temperatures Readings
Current 5°C / 41°F
Dewpoint 2°C / 36°F
Humidity 81%
Altimeter 29.65" Hg
Pressure 1004 hPa
Elevation 2
METAR ENNM 221350Z 25017G34KT 220V300 9999 -SHRASN FEW017 SCT028 BKN044 05/02 Q1004
Observed Flight Rules
Oct-22 @ 13:50 UTC
(30 minutes ago)
VFR
Wind Visibility
250° at 17 knots
 Gusting to 34 knots
10,000+ meters
Clouds
  • Few at 1,700' AGL
  • Scattered at 2,800' AGL
  • Broken at 4,400' AGL
Conditions
  • Light Rain
  • Light Snow
Temperature Dewpoint
5°C / 41°F 2°C / 36°F
Humidity Altimeter Pressure
81% 29.65" Hg 1004 hPa